sensor_id;sensor_type;location;lat;lon;timestamp;temperature;humidity
37478;DHT22;23334;54.316;10.182;2022-10-16T04:02:58;11.70;99.90
37478;DHT22;23334;54.316;10.182;2022-10-16T04:05:23;11.70;99.90
37478;DHT22;23334;54.316;10.182;2022-10-16T04:07:49;11.70;99.90
37478;DHT22;23334;54.316;10.182;2022-10-16T04:12:40;11.90;99.90
37478;DHT22;23334;54.316;10.182;2022-10-16T04:15:07;11.80;99.90
37478;DHT22;23334;54.316;10.182;2022-10-16T04:17:33;11.80;99.90
37478;DHT22;23334;54.316;10.182;2022-10-16T04:22:24;11.80;99.90
37478;DHT22;23334;54.316;10.182;2022-10-16T04:24:50;11.70;99.90
37478;DHT22;23334;54.316;10.182;2022-10-16T04:27:28;11.90;99.90
37478;DHT22;23334;54.316;10.182;2022-10-16T04:29:59;11.70;99.90
37478;DHT22;23334;54.316;10.182;2022-10-16T04:32:30;11.70;99.90
37478;DHT22;23334;54.316;10.182;2022-10-16T04:34:55;11.70;99.90
37478;DHT22;23334;54.316;10.182;2022-10-16T04:37:26;12.20;99.90
37478;DHT22;23334;54.316;10.182;2022-10-16T04:39:52;11.60;99.90
37478;DHT22;23334;54.316;10.182;2022-10-16T04:42:18;11.90;99.90
37478;DHT22;23334;54.316;10.182;2022-10-16T04:44:44;11.70;99.90
37478;DHT22;23334;54.316;10.182;2022-10-16T04:49:35;11.80;99.90
37478;DHT22;23334;54.316;10.182;2022-10-16T04:52:01;11.80;99.90
37478;DHT22;23334;54.316;10.182;2022-10-16T04:54:26;12.20;99.90
37478;DHT22;23334;54.316;10.182;2022-10-16T04:56:52;11.90;99.90
37478;DHT22;23334;54.316;10.182;2022-10-16T04:59:19;12.10;99.90
37478;DHT22;23334;54.316;10.182;2022-10-16T05:01:44;11.60;99.90
37478;DHT22;23334;54.316;10.182;2022-10-16T05:04:10;11.80;99.90
37478;DHT22;23334;54.316;10.182;2022-10-16T05:06:36;12.30;99.90
37478;DHT22;23334;54.316;10.182;2022-10-16T05:09:04;12.00;99.90
37478;DHT22;23334;54.316;10.182;2022-10-16T05:11:30;11.90;99.90
37478;DHT22;23334;54.316;10.182;2022-10-16T05:13:55;12.10;99.90
37478;DHT22;23334;54.316;10.182;2022-10-16T05:16:21;12.10;99.90
37478;DHT22;23334;54.316;10.182;2022-10-16T05:18:46;12.10;99.90
37478;DHT22;23334;54.316;10.182;2022-10-16T05:23:37;12.10;99.90
37478;DHT22;23334;54.316;10.182;2022-10-16T05:26:03;12.10;99.90
37478;DHT22;23334;54.316;10.182;2022-10-16T05:28:29;12.10;99.90
37478;DHT22;23334;54.316;10.182;2022-10-16T05:30:56;12.10;99.90
37478;DHT22;23334;54.316;10.182;2022-10-16T05:33:23;12.40;99.90
37478;DHT22;23334;54.316;10.182;2022-10-16T05:35:49;12.00;99.90
37478;DHT22;23334;54.316;10.182;2022-10-16T05:38:16;12.30;99.90
37478;DHT22;23334;54.316;10.182;2022-10-16T05:40:41;12.00;99.90
37478;DHT22;23334;54.316;10.182;2022-10-16T05:45:33;12.20;99.90
37478;DHT22;23334;54.316;10.182;2022-10-16T05:47:59;12.20;99.90
37478;DHT22;23334;54.316;10.182;2022-10-16T05:50:25;12.30;99.90
37478;DHT22;23334;54.316;10.182;2022-10-16T05:52:51;12.20;99.90
37478;DHT22;23334;54.316;10.182;2022-10-16T05:55:16;11.90;99.90
37478;DHT22;23334;54.316;10.182;2022-10-16T05:57:42;12.20;99.90
37478;DHT22;23334;54.316;10.182;2022-10-16T06:00:08;12.10;99.90
37478;DHT22;23334;54.316;10.182;2022-10-16T06:02:34;12.30;99.90
37478;DHT22;23334;54.316;10.182;2022-10-16T06:04:59;12.30;99.90
37478;DHT22;23334;54.316;10.182;2022-10-16T06:07:25;12.30;99.90
37478;DHT22;23334;54.316;10.182;2022-10-16T06:09:51;12.30;99.90
37478;DHT22;23334;54.316;10.182;2022-10-16T06:12:17;12.40;99.90
37478;DHT22;23334;54.316;10.182;2022-10-16T06:14:44;12.30;99.90
37478;DHT22;23334;54.316;10.182;2022-10-16T06:17:09;12.40;99.90
37478;DHT22;23334;54.316;10.182;2022-10-16T06:19:34;12.40;99.90
37478;DHT22;23334;54.316;10.182;2022-10-16T06:24:27;12.40;99.90
37478;DHT22;23334;54.316;10.182;2022-10-16T06:26:53;12.30;99.90
37478;DHT22;23334;54.316;10.182;2022-10-16T06:29:18;12.30;99.90
37478;DHT22;23334;54.316;10.182;2022-10-16T06:31:45;12.60;99.90
37478;DHT22;23334;54.316;10.182;2022-10-16T06:34:11;12.30;99.90
37478;DHT22;23334;54.316;10.182;2022-10-16T06:36:38;12.40;99.90
37478;DHT22;23334;54.316;10.182;2022-10-16T06:39:05;14.00;99.90
37478;DHT22;23334;54.316;10.182;2022-10-16T06:45:09;12.90;99.90
37478;DHT22;23334;54.316;10.182;2022-10-16T06:47:34;12.90;99.90
37478;DHT22;23334;54.316;10.182;2022-10-16T06:50:29;13.00;99.90
37478;DHT22;23334;54.316;10.182;2022-10-16T06:53:00;12.90;99.90
37478;DHT22;23334;54.316;10.182;2022-10-16T06:55:25;13.00;99.90
37478;DHT22;23334;54.316;10.182;2022-10-16T07:00:17;13.00;99.90
37478;DHT22;23334;54.316;10.182;2022-10-16T07:02:43;12.90;99.90
37478;DHT22;23334;54.316;10.182;2022-10-16T07:05:09;12.80;99.90
37478;DHT22;23334;54.316;10.182;2022-10-16T07:10:00;13.20;99.90
37478;DHT22;23334;54.316;10.182;2022-10-16T07:12:25;13.40;99.90
37478;DHT22;23334;54.316;10.182;2022-10-16T07:14:51;13.30;99.90
37478;DHT22;23334;54.316;10.182;2022-10-16T07:17:17;13.40;99.90
37478;DHT22;23334;54.316;10.182;2022-10-16T07:19:43;13.50;99.90
37478;DHT22;23334;54.316;10.182;2022-10-16T07:29:26;14.70;99.90
37478;DHT22;23334;54.316;10.182;2022-10-16T07:31:52;13.90;99.90
37478;DHT22;23334;54.316;10.182;2022-10-16T12:01:33;18.00;99.90
37478;DHT22;23334;54.316;10.182;2022-10-16T12:07:07;17.90;99.90
37478;DHT22;23334;54.316;10.182;2022-10-16T12:09:38;18.10;99.90
37478;DHT22;23334;54.316;10.182;2022-10-16T12:12:04;17.60;99.90
37478;DHT22;23334;54.316;10.182;2022-10-16T12:17:27;18.20;99.90
37478;DHT22;23334;54.316;10.182;2022-10-16T12:22:41;18.30;99.90
37478;DHT22;23334;54.316;10.182;2022-10-16T12:25:35;17.50;99.90
37478;DHT22;23334;54.316;10.182;2022-10-16T12:28:26;18.20;99.90
37478;DHT22;23334;54.316;10.182;2022-10-16T12:31:04;18.30;99.90
37478;DHT22;23334;54.316;10.182;2022-10-16T12:33:33;18.70;99.90
37478;DHT22;23334;54.316;10.182;2022-10-16T12:36:02;18.00;99.90
37478;DHT22;23334;54.316;10.182;2022-10-16T12:38:36;18.10;99.90
37478;DHT22;23334;54.316;10.182;2022-10-16T12:41:07;18.10;99.90
37478;DHT22;23334;54.316;10.182;2022-10-16T12:43:40;18.40;99.90
37478;DHT22;23334;54.316;10.182;2022-10-16T12:48:41;18.50;99.90
37478;DHT22;23334;54.316;10.182;2022-10-16T12:51:22;18.40;99.90
37478;DHT22;23334;54.316;10.182;2022-10-16T12:54:14;18.40;99.90
37478;DHT22;23334;54.316;10.182;2022-10-16T12:57:03;18.30;99.90
37478;DHT22;23334;54.316;10.182;2022-10-16T12:59:53;17.90;99.90
37478;DHT22;23334;54.316;10.182;2022-10-16T13:02:49;17.50;99.90
37478;DHT22;23334;54.316;10.182;2022-10-16T13:08:34;17.60;99.90
37478;DHT22;23334;54.316;10.182;2022-10-16T13:11:38;17.30;99.90
37478;DHT22;23334;54.316;10.182;2022-10-16T13:20:00;16.90;99.90
37478;DHT22;23334;54.316;10.182;2022-10-16T13:25:44;16.80;99.90
37478;DHT22;23334;54.316;10.182;2022-10-16T13:28:13;16.60;99.90
37478;DHT22;23334;54.316;10.182;2022-10-16T13:30:41;16.60;99.90
37478;DHT22;23334;54.316;10.182;2022-10-16T13:36:06;17.00;99.90
37478;DHT22;23334;54.316;10.182;2022-10-16T13:38:34;17.40;99.90
37478;DHT22;23334;54.316;10.182;2022-10-16T13:41:05;16.70;99.90
37478;DHT22;23334;54.316;10.182;2022-10-16T13:43:32;16.50;99.90
37478;DHT22;23334;54.316;10.182;2022-10-16T13:46:19;16.90;99.90
37478;DHT22;23334;54.316;10.182;2022-10-16T13:48:56;16.90;99.90
37478;DHT22;23334;54.316;10.182;2022-10-16T13:51:21;16.80;99.90
37478;DHT22;23334;54.316;10.182;2022-10-16T13:53:52;17.00;99.90
37478;DHT22;23334;54.316;10.182;2022-10-16T13:56:20;16.90;99.90
37478;DHT22;23334;54.316;10.182;2022-10-16T13:58:57;16.70;99.90
37478;DHT22;23334;54.316;10.182;2022-10-16T14:01:55;16.80;99.90
37478;DHT22;23334;54.316;10.182;2022-10-16T14:04:22;16.60;99.90
37478;DHT22;23334;54.316;10.182;2022-10-16T14:06:50;16.40;99.90
37478;DHT22;23334;54.316;10.182;2022-10-16T14:09:27;16.40;99.90
37478;DHT22;23334;54.316;10.182;2022-10-16T14:11:56;16.50;99.90
37478;DHT22;23334;54.316;10.182;2022-10-16T14:14:23;16.10;99.90
37478;DHT22;23334;54.316;10.182;2022-10-16T14:16:49;17.10;99.90
37478;DHT22;23334;54.316;10.182;2022-10-16T14:19:27;16.40;99.90
37478;DHT22;23334;54.316;10.182;2022-10-16T14:21:53;16.40;99.90
37478;DHT22;23334;54.316;10.182;2022-10-16T14:24:35;16.20;99.90
37478;DHT22;23334;54.316;10.182;2022-10-16T14:27:01;17.60;99.90
37478;DHT22;23334;54.316;10.182;2022-10-16T14:29:28;15.60;99.90
37478;DHT22;23334;54.316;10.182;2022-10-16T14:31:59;15.70;99.90
37478;DHT22;23334;54.316;10.182;2022-10-16T14:37:23;16.20;99.90
37478;DHT22;23334;54.316;10.182;2022-10-16T14:39:51;16.20;99.90
37478;DHT22;23334;54.316;10.182;2022-10-16T14:42:19;15.80;99.90
37478;DHT22;23334;54.316;10.182;2022-10-16T14:44:45;15.50;99.90
37478;DHT22;23334;54.316;10.182;2022-10-16T14:47:17;15.60;99.90
37478;DHT22;23334;54.316;10.182;2022-10-16T14:49:49;15.60;99.90
37478;DHT22;23334;54.316;10.182;2022-10-16T14:52:14;15.90;99.90
37478;DHT22;23334;54.316;10.182;2022-10-16T14:54:40;16.00;99.90
37478;DHT22;23334;54.316;10.182;2022-10-16T14:57:16;16.00;99.90
37478;DHT22;23334;54.316;10.182;2022-10-16T14:59:42;15.40;99.90
37478;DHT22;23334;54.316;10.182;2022-10-16T15:02:34;15.40;99.90
37478;DHT22;23334;54.316;10.182;2022-10-16T15:05:15;15.60;99.90
37478;DHT22;23334;54.316;10.182;2022-10-16T15:07:40;15.90;99.90
37478;DHT22;23334;54.316;10.182;2022-10-16T15:10:07;15.80;99.90
37478;DHT22;23334;54.316;10.182;2022-10-16T15:12:32;15.80;99.90
37478;DHT22;23334;54.316;10.182;2022-10-16T15:14:58;15.80;99.90
37478;DHT22;23334;54.316;10.182;2022-10-16T15:17:23;15.90;99.90
37478;DHT22;23334;54.316;10.182;2022-10-16T15:19:49;15.80;99.90
37478;DHT22;23334;54.316;10.182;2022-10-16T15:22:14;15.90;99.90
37478;DHT22;23334;54.316;10.182;2022-10-16T15:24:40;15.80;99.90
37478;DHT22;23334;54.316;10.182;2022-10-16T15:27:05;15.80;99.90
37478;DHT22;23334;54.316;10.182;2022-10-16T15:29:31;15.70;99.90
37478;DHT22;23334;54.316;10.182;2022-10-16T15:31:56;15.60;99.90
37478;DHT22;23334;54.316;10.182;2022-10-16T15:34:22;15.10;99.90
37478;DHT22;23334;54.316;10.182;2022-10-16T15:36:47;15.30;99.90
37478;DHT22;23334;54.316;10.182;2022-10-16T15:39:15;15.20;99.90
37478;DHT22;23334;54.316;10.182;2022-10-16T15:41:41;15.10;99.90
37478;DHT22;23334;54.316;10.182;2022-10-16T15:44:07;15.10;99.90
37478;DHT22;23334;54.316;10.182;2022-10-16T15:46:33;14.90;99.90
37478;DHT22;23334;54.316;10.182;2022-10-16T15:48:59;14.80;99.90
37478;DHT22;23334;54.316;10.182;2022-10-16T15:51:27;14.40;99.90
37478;DHT22;23334;54.316;10.182;2022-10-16T15:53:58;14.50;99.90
37478;DHT22;23334;54.316;10.182;2022-10-16T15:56:27;14.10;99.90
37478;DHT22;23334;54.316;10.182;2022-10-16T15:58:53;14.50;99.90
37478;DHT22;23334;54.316;10.182;2022-10-16T16:01:19;14.40;99.90
37478;DHT22;23334;54.316;10.182;2022-10-16T16:03:45;14.30;99.90
37478;DHT22;23334;54.316;10.182;2022-10-16T16:06:13;14.30;99.90
37478;DHT22;23334;54.316;10.182;2022-10-16T16:08:39;13.70;99.90
37478;DHT22;23334;54.316;10.182;2022-10-16T16:11:07;14.10;99.90
37478;DHT22;23334;54.316;10.182;2022-10-16T16:13:33;13.50;99.90
37478;DHT22;23334;54.316;10.182;2022-10-16T16:15:58;13.90;99.90
37478;DHT22;23334;54.316;10.182;2022-10-16T16:18:24;13.80;99.90
37478;DHT22;23334;54.316;10.182;2022-10-16T16:20:51;13.70;99.90
37478;DHT22;23334;54.316;10.182;2022-10-16T16:23:16;13.60;99.90
37478;DHT22;23334;54.316;10.182;2022-10-16T16:25:42;13.50;99.90
37478;DHT22;23334;54.316;10.182;2022-10-16T16:28:08;13.50;99.90
37478;DHT22;23334;54.316;10.182;2022-10-16T16:30:36;13.40;99.90
37478;DHT22;23334;54.316;10.182;2022-10-16T16:33:01;13.70;99.90
37478;DHT22;23334;54.316;10.182;2022-10-16T16:35:27;13.50;99.90
37478;DHT22;23334;54.316;10.182;2022-10-16T16:37:52;13.60;99.90
37478;DHT22;23334;54.316;10.182;2022-10-16T16:40:18;13.40;99.90
37478;DHT22;23334;54.316;10.182;2022-10-16T16:42:43;13.40;99.90
37478;DHT22;23334;54.316;10.182;2022-10-16T16:45:09;13.10;99.90
37478;DHT22;23334;54.316;10.182;2022-10-16T16:47:34;13.30;99.90
37478;DHT22;23334;54.316;10.182;2022-10-16T16:50:00;13.30;99.90
37478;DHT22;23334;54.316;10.182;2022-10-16T16:52:30;13.20;99.90
37478;DHT22;23334;54.316;10.182;2022-10-16T16:54:55;13.40;99.90
37478;DHT22;23334;54.316;10.182;2022-10-16T16:57:21;13.10;99.90
37478;DHT22;23334;54.316;10.182;2022-10-16T16:59:46;13.00;99.90
37478;DHT22;23334;54.316;10.182;2022-10-16T17:02:12;13.00;99.90
37478;DHT22;23334;54.316;10.182;2022-10-16T17:04:38;12.80;99.90
37478;DHT22;23334;54.316;10.182;2022-10-16T17:07:03;12.70;99.90
37478;DHT22;23334;54.316;10.182;2022-10-16T17:09:32;12.70;99.90
37478;DHT22;23334;54.316;10.182;2022-10-16T17:11:57;12.50;99.90
37478;DHT22;23334;54.316;10.182;2022-10-16T17:14:22;12.60;99.90
37478;DHT22;23334;54.316;10.182;2022-10-16T17:16:48;12.60;99.90
37478;DHT22;23334;54.316;10.182;2022-10-16T17:19:16;12.50;99.90
37478;DHT22;23334;54.316;10.182;2022-10-16T17:21:43;12.50;99.90
37478;DHT22;23334;54.316;10.182;2022-10-16T17:24:08;12.30;99.90
37478;DHT22;23334;54.316;10.182;2022-10-16T17:29:06;12.30;99.90
37478;DHT22;23334;54.316;10.182;2022-10-16T17:31:34;12.00;99.90
37478;DHT22;23334;54.316;10.182;2022-10-16T17:34:00;12.00;99.90
37478;DHT22;23334;54.316;10.182;2022-10-16T17:36:26;11.80;99.90
37478;DHT22;23334;54.316;10.182;2022-10-16T17:38:57;12.10;99.90
37478;DHT22;23334;54.316;10.182;2022-10-16T17:43:51;12.10;99.90
37478;DHT22;23334;54.316;10.182;2022-10-16T17:46:19;11.90;99.90
37478;DHT22;23334;54.316;10.182;2022-10-16T17:48:48;11.60;99.90
37478;DHT22;23334;54.316;10.182;2022-10-16T17:51:16;11.90;99.90
37478;DHT22;23334;54.316;10.182;2022-10-16T17:53:42;11.60;99.90
37478;DHT22;23334;54.316;10.182;2022-10-16T17:56:11;11.80;99.90
37478;DHT22;23334;54.316;10.182;2022-10-16T17:58:38;11.50;99.90
37478;DHT22;23334;54.316;10.182;2022-10-16T18:01:34;11.50;99.90
37478;DHT22;23334;54.316;10.182;2022-10-16T18:04:03;11.60;99.90
37478;DHT22;23334;54.316;10.182;2022-10-16T18:06:30;11.60;99.90
37478;DHT22;23334;54.316;10.182;2022-10-16T18:08:57;11.90;99.90
37478;DHT22;23334;54.316;10.182;2022-10-16T18:11:23;11.30;99.90
37478;DHT22;23334;54.316;10.182;2022-10-16T18:13:53;11.30;99.90
37478;DHT22;23334;54.316;10.182;2022-10-16T18:16:19;11.40;99.90
37478;DHT22;23334;54.316;10.182;2022-10-16T18:18:45;11.20;99.90
37478;DHT22;23334;54.316;10.182;2022-10-16T18:21:13;11.10;99.90
37478;DHT22;23334;54.316;10.182;2022-10-16T18:23:39;11.00;99.90
37478;DHT22;23334;54.316;10.182;2022-10-16T18:26:06;10.80;99.90
37478;DHT22;23334;54.316;10.182;2022-10-16T18:28:32;10.90;99.90
37478;DHT22;23334;54.316;10.182;2022-10-16T18:31:00;10.90;99.90
37478;DHT22;23334;54.316;10.182;2022-10-16T18:33:26;10.70;99.90
37478;DHT22;23334;54.316;10.182;2022-10-16T18:35:52;10.50;99.90
37478;DHT22;23334;54.316;10.182;2022-10-16T18:38:19;10.70;99.90
37478;DHT22;23334;54.316;10.182;2022-10-16T18:40:45;10.80;99.90
37478;DHT22;23334;54.316;10.182;2022-10-16T18:48:02;10.80;99.90
37478;DHT22;23334;54.316;10.182;2022-10-16T18:50:28;10.70;99.90
37478;DHT22;23334;54.316;10.182;2022-10-16T18:52:53;10.80;99.90
37478;DHT22;23334;54.316;10.182;2022-10-16T18:55:19;10.80;99.90
37478;DHT22;23334;54.316;10.182;2022-10-16T18:57:45;10.70;99.90
37478;DHT22;23334;54.316;10.182;2022-10-16T19:00:11;10.80;99.90
37478;DHT22;23334;54.316;10.182;2022-10-16T19:02:36;10.80;99.90
37478;DHT22;23334;54.316;10.182;2022-10-16T19:05:02;10.70;99.90
37478;DHT22;23334;54.316;10.182;2022-10-16T19:07:28;10.80;99.90
37478;DHT22;23334;54.316;10.182;2022-10-16T19:09:54;10.90;99.90
37478;DHT22;23334;54.316;10.182;2022-10-16T19:14:47;10.90;99.90
37478;DHT22;23334;54.316;10.182;2022-10-16T19:17:13;10.80;99.90
37478;DHT22;23334;54.316;10.182;2022-10-16T19:19:39;10.90;99.90
37478;DHT22;23334;54.316;10.182;2022-10-16T19:22:04;10.90;99.90
37478;DHT22;23334;54.316;10.182;2022-10-16T19:24:39;10.80;99.90
37478;DHT22;23334;54.316;10.182;2022-10-16T19:27:05;10.70;99.90
37478;DHT22;23334;54.316;10.182;2022-10-16T19:29:30;10.60;99.90
37478;DHT22;23334;54.316;10.182;2022-10-16T19:31:57;10.80;99.90
37478;DHT22;23334;54.316;10.182;2022-10-16T19:34:22;10.60;99.90
37478;DHT22;23334;54.316;10.182;2022-10-16T19:36:48;10.60;99.90
37478;DHT22;23334;54.316;10.182;2022-10-16T19:39:15;10.30;99.90
37478;DHT22;23334;54.316;10.182;2022-10-16T19:41:44;10.40;99.90
37478;DHT22;23334;54.316;10.182;2022-10-16T19:44:12;10.50;99.90
37478;DHT22;23334;54.316;10.182;2022-10-16T19:46:38;10.40;99.90
37478;DHT22;23334;54.316;10.182;2022-10-16T19:49:07;12.80;99.90
37478;DHT22;23334;54.316;10.182;2022-10-16T19:51:33;10.40;99.90
37478;DHT22;23334;54.316;10.182;2022-10-16T19:54:01;10.10;99.90
37478;DHT22;23334;54.316;10.182;2022-10-16T19:56:29;10.20;99.90
37478;DHT22;23334;54.316;10.182;2022-10-16T19:58:56;10.20;99.90
37478;DHT22;23334;54.316;10.182;2022-10-16T20:01:23;11.50;99.90
37478;DHT22;23334;54.316;10.182;2022-10-16T20:03:49;10.30;99.90
37478;DHT22;23334;54.316;10.182;2022-10-16T20:06:15;10.40;99.90
37478;DHT22;23334;54.316;10.182;2022-10-16T20:08:42;10.20;99.90
37478;DHT22;23334;54.316;10.182;2022-10-16T20:11:11;10.30;99.90
37478;DHT22;23334;54.316;10.182;2022-10-16T20:13:37;10.30;99.90
37478;DHT22;23334;54.316;10.182;2022-10-16T20:16:03;10.30;99.90
37478;DHT22;23334;54.316;10.182;2022-10-16T20:18:29;10.40;99.90
37478;DHT22;23334;54.316;10.182;2022-10-16T20:20:54;10.50;99.90
37478;DHT22;23334;54.316;10.182;2022-10-16T20:23:20;10.50;99.90
37478;DHT22;23334;54.316;10.182;2022-10-16T20:25:48;10.20;99.90
37478;DHT22;23334;54.316;10.182;2022-10-16T20:28:17;10.30;99.90
37478;DHT22;23334;54.316;10.182;2022-10-16T20:30:45;10.40;99.90
37478;DHT22;23334;54.316;10.182;2022-10-16T20:33:11;10.30;99.90
37478;DHT22;23334;54.316;10.182;2022-10-16T20:35:40;10.60;99.90
37478;DHT22;23334;54.316;10.182;2022-10-16T20:38:05;10.20;99.90
37478;DHT22;23334;54.316;10.182;2022-10-16T20:40:35;10.70;99.90
37478;DHT22;23334;54.316;10.182;2022-10-16T20:43:01;10.40;99.90
37478;DHT22;23334;54.316;10.182;2022-10-16T20:45:27;10.70;99.90
37478;DHT22;23334;54.316;10.182;2022-10-16T20:47:52;10.80;99.90
37478;DHT22;23334;54.316;10.182;2022-10-16T20:50:18;10.80;99.90
37478;DHT22;23334;54.316;10.182;2022-10-16T20:52:43;10.80;99.90
37478;DHT22;23334;54.316;10.182;2022-10-16T20:55:09;10.70;99.90
37478;DHT22;23334;54.316;10.182;2022-10-16T20:57:34;10.60;99.90
37478;DHT22;23334;54.316;10.182;2022-10-16T21:00:01;10.80;99.90
37478;DHT22;23334;54.316;10.182;2022-10-16T21:02:26;10.60;99.90
37478;DHT22;23334;54.316;10.182;2022-10-16T21:04:52;10.60;99.90
37478;DHT22;23334;54.316;10.182;2022-10-16T21:07:17;10.60;99.90
37478;DHT22;23334;54.316;10.182;2022-10-16T21:09:43;10.60;99.90
37478;DHT22;23334;54.316;10.182;2022-10-16T21:12:09;10.30;99.90
37478;DHT22;23334;54.316;10.182;2022-10-16T21:14:35;10.60;99.90
37478;DHT22;23334;54.316;10.182;2022-10-16T21:17:01;10.50;99.90
37478;DHT22;23334;54.316;10.182;2022-10-16T21:19:31;10.50;99.90
37478;DHT22;23334;54.316;10.182;2022-10-16T21:21:57;10.40;99.90
37478;DHT22;23334;54.316;10.182;2022-10-16T21:24:22;10.40;99.90
37478;DHT22;23334;54.316;10.182;2022-10-16T21:26:48;10.40;99.90
37478;DHT22;23334;54.316;10.182;2022-10-16T21:29:13;10.30;99.90
37478;DHT22;23334;54.316;10.182;2022-10-16T21:31:39;10.50;99.90
37478;DHT22;23334;54.316;10.182;2022-10-16T21:34:05;9.90;99.90
37478;DHT22;23334;54.316;10.182;2022-10-16T21:36:36;10.50;99.90
37478;DHT22;23334;54.316;10.182;2022-10-16T21:39:08;10.30;99.90
37478;DHT22;23334;54.316;10.182;2022-10-16T21:41:35;10.40;99.90
37478;DHT22;23334;54.316;10.182;2022-10-16T21:44:01;11.20;99.90
37478;DHT22;23334;54.316;10.182;2022-10-16T21:46:30;11.00;99.90
37478;DHT22;23334;54.316;10.182;2022-10-16T21:48:58;10.60;99.90
37478;DHT22;23334;54.316;10.182;2022-10-16T21:51:29;10.50;99.90
37478;DHT22;23334;54.316;10.182;2022-10-16T21:53:55;10.70;99.90
37478;DHT22;23334;54.316;10.182;2022-10-16T21:56:21;10.70;99.90
37478;DHT22;23334;54.316;10.182;2022-10-16T21:58:47;10.70;99.90
37478;DHT22;23334;54.316;10.182;2022-10-16T22:01:15;10.40;99.90
37478;DHT22;23334;54.316;10.182;2022-10-16T22:03:43;10.40;99.90
37478;DHT22;23334;54.316;10.182;2022-10-16T22:06:10;10.30;99.90
37478;DHT22;23334;54.316;10.182;2022-10-16T22:08:36;10.20;99.90
37478;DHT22;23334;54.316;10.182;2022-10-16T22:11:08;10.40;99.90
37478;DHT22;23334;54.316;10.182;2022-10-16T22:13:34;10.70;99.90
37478;DHT22;23334;54.316;10.182;2022-10-16T22:16:00;10.90;99.90
37478;DHT22;23334;54.316;10.182;2022-10-16T22:18:25;10.90;99.90
37478;DHT22;23334;54.316;10.182;2022-10-16T22:20:51;10.90;99.90
37478;DHT22;23334;54.316;10.182;2022-10-16T22:23:17;10.90;99.90
37478;DHT22;23334;54.316;10.182;2022-10-16T22:25:44;11.00;99.90
37478;DHT22;23334;54.316;10.182;2022-10-16T22:28:09;11.00;99.90
37478;DHT22;23334;54.316;10.182;2022-10-16T22:30:36;10.90;99.90
37478;DHT22;23334;54.316;10.182;2022-10-16T22:33:01;10.80;99.90
37478;DHT22;23334;54.316;10.182;2022-10-16T22:35:27;10.80;99.90
37478;DHT22;23334;54.316;10.182;2022-10-16T22:37:53;10.70;99.90
37478;DHT22;23334;54.316;10.182;2022-10-16T22:40:18;10.70;99.90
37478;DHT22;23334;54.316;10.182;2022-10-16T22:42:44;10.70;99.90
37478;DHT22;23334;54.316;10.182;2022-10-16T22:45:09;10.60;99.90
37478;DHT22;23334;54.316;10.182;2022-10-16T22:47:35;10.50;99.90
37478;DHT22;23334;54.316;10.182;2022-10-16T22:50:00;10.40;99.90
37478;DHT22;23334;54.316;10.182;2022-10-16T22:52:26;10.40;99.90
37478;DHT22;23334;54.316;10.182;2022-10-16T22:54:51;10.30;99.90
37478;DHT22;23334;54.316;10.182;2022-10-16T22:57:17;10.30;99.90
37478;DHT22;23334;54.316;10.182;2022-10-16T22:59:42;10.30;99.90
37478;DHT22;23334;54.316;10.182;2022-10-16T23:02:08;10.20;99.90
37478;DHT22;23334;54.316;10.182;2022-10-16T23:04:33;10.10;99.90
37478;DHT22;23334;54.316;10.182;2022-10-16T23:06:59;10.00;99.90
37478;DHT22;23334;54.316;10.182;2022-10-16T23:09:25;10.00;99.90
37478;DHT22;23334;54.316;10.182;2022-10-16T23:11:51;9.40;99.90
37478;DHT22;23334;54.316;10.182;2022-10-16T23:14:20;10.00;99.90
